sensor_id;sensor_type;location;lat;lon;timestamp;P1;durP1;ratioP1;P2;durP2;ratioP2
11735;SDS011;5924;51.398;7.088;2023-04-23T04:49:55;40.27;;;24.57;;
11735;SDS011;5924;51.398;7.088;2023-04-23T04:52:26;52.30;;;25.50;;
11735;SDS011;5924;51.398;7.088;2023-04-23T04:54:55;44.00;;;24.57;;
11735;SDS011;5924;51.398;7.088;2023-04-23T04:57:23;40.65;;;23.02;;
11735;SDS011;5924;51.398;7.088;2023-04-23T04:59:52;42.70;;;23.03;;
11735;SDS011;5924;51.398;7.088;2023-04-23T05:02:24;43.63;;;24.87;;
11735;SDS011;5924;51.398;7.088;2023-04-23T05:04:58;35.33;;;21.80;;
11735;SDS011;5924;51.398;7.088;2023-04-23T05:07:29;36.22;;;22.77;;
11735;SDS011;5924;51.398;7.088;2023-04-23T05:09:55;39.55;;;23.23;;
11735;SDS011;5924;51.398;7.088;2023-04-23T05:12:29;30.97;;;21.00;;
11735;SDS011;5924;51.398;7.088;2023-04-23T05:15:01;34.73;;;21.43;;
11735;SDS011;5924;51.398;7.088;2023-04-23T05:17:34;36.80;;;22.97;;
11735;SDS011;5924;51.398;7.088;2023-04-23T05:20:12;31.43;;;21.33;;
11735;SDS011;5924;51.398;7.088;2023-04-23T05:22:41;35.57;;;19.80;;
11735;SDS011;5924;51.398;7.088;2023-04-23T05:25:13;32.90;;;21.13;;
11735;SDS011;5924;51.398;7.088;2023-04-23T05:27:39;31.98;;;19.80;;
11735;SDS011;5924;51.398;7.088;2023-04-23T05:30:20;30.20;;;20.57;;
11735;SDS011;5924;51.398;7.088;2023-04-23T05:32:48;25.77;;;18.40;;
11735;SDS011;5924;51.398;7.088;2023-04-23T05:35:17;28.27;;;18.77;;
11735;SDS011;5924;51.398;7.088;2023-04-23T05:37:46;28.30;;;19.67;;
11735;SDS011;5924;51.398;7.088;2023-04-23T05:40:25;26.83;;;18.27;;
11735;SDS011;5924;51.398;7.088;2023-04-23T05:42:54;28.87;;;18.53;;
11735;SDS011;5924;51.398;7.088;2023-04-23T05:45:24;23.20;;;16.73;;
11735;SDS011;5924;51.398;7.088;2023-04-23T05:47:55;20.90;;;16.83;;
11735;SDS011;5924;51.398;7.088;2023-04-23T05:50:29;20.17;;;16.00;;
11735;SDS011;5924;51.398;7.088;2023-04-23T05:53:13;23.37;;;16.90;;
11735;SDS011;5924;51.398;7.088;2023-04-23T05:55:44;19.20;;;15.23;;
11735;SDS011;5924;51.398;7.088;2023-04-23T05:58:28;19.70;;;15.73;;
11735;SDS011;5924;51.398;7.088;2023-04-23T06:01:05;21.73;;;16.40;;
11735;SDS011;5924;51.398;7.088;2023-04-23T06:03:33;19.53;;;15.70;;
11735;SDS011;5924;51.398;7.088;2023-04-23T06:05:59;18.63;;;15.10;;
11735;SDS011;5924;51.398;7.088;2023-04-23T06:08:33;18.20;;;15.73;;
11735;SDS011;5924;51.398;7.088;2023-04-23T06:11:01;28.63;;;18.03;;
11735;SDS011;5924;51.398;7.088;2023-04-23T06:13:38;28.47;;;17.27;;
11735;SDS011;5924;51.398;7.088;2023-04-23T06:16:12;25.13;;;17.27;;
11735;SDS011;5924;51.398;7.088;2023-04-23T06:19:03;17.58;;;14.63;;
11735;SDS011;5924;51.398;7.088;2023-04-23T06:21:34;22.67;;;14.60;;
11735;SDS011;5924;51.398;7.088;2023-04-23T06:24:05;19.43;;;14.53;;
11735;SDS011;5924;51.398;7.088;2023-04-23T06:26:36;29.33;;;16.10;;
11735;SDS011;5924;51.398;7.088;2023-04-23T06:29:09;20.90;;;15.60;;
11735;SDS011;5924;51.398;7.088;2023-04-23T06:31:37;18.53;;;13.73;;
11735;SDS011;5924;51.398;7.088;2023-04-23T06:34:08;31.83;;;15.67;;
11735;SDS011;5924;51.398;7.088;2023-04-23T06:36:41;17.90;;;13.33;;
11735;SDS011;5924;51.398;7.088;2023-04-23T06:39:15;19.90;;;13.30;;
11735;SDS011;5924;51.398;7.088;2023-04-23T06:41:53;27.33;;;15.23;;
11735;SDS011;5924;51.398;7.088;2023-04-23T06:44:30;19.33;;;13.80;;
11735;SDS011;5924;51.398;7.088;2023-04-23T06:46:56;25.20;;;15.88;;
11735;SDS011;5924;51.398;7.088;2023-04-23T06:49:31;23.77;;;15.07;;
11735;SDS011;5924;51.398;7.088;2023-04-23T06:52:10;21.43;;;14.87;;
11735;SDS011;5924;51.398;7.088;2023-04-23T06:54:51;20.33;;;13.25;;
11735;SDS011;5924;51.398;7.088;2023-04-23T06:57:33;21.73;;;14.80;;
11735;SDS011;5924;51.398;7.088;2023-04-23T07:00:00;18.07;;;13.90;;
11735;SDS011;5924;51.398;7.088;2023-04-23T07:02:33;21.33;;;13.23;;
11735;SDS011;5924;51.398;7.088;2023-04-23T07:05:01;17.50;;;12.40;;
11735;SDS011;5924;51.398;7.088;2023-04-23T07:07:50;18.57;;;12.70;;
11735;SDS011;5924;51.398;7.088;2023-04-23T07:10:28;12.40;;;11.10;;
11735;SDS011;5924;51.398;7.088;2023-04-23T07:12:57;14.27;;;12.23;;
11735;SDS011;5924;51.398;7.088;2023-04-23T07:15:25;13.20;;;11.43;;
11735;SDS011;5924;51.398;7.088;2023-04-23T07:17:54;13.43;;;11.50;;
11735;SDS011;5924;51.398;7.088;2023-04-23T07:20:20;12.17;;;10.87;;
11735;SDS011;5924;51.398;7.088;2023-04-23T07:22:58;18.65;;;10.80;;
11735;SDS011;5924;51.398;7.088;2023-04-23T07:25:33;12.13;;;10.43;;
11735;SDS011;5924;51.398;7.088;2023-04-23T07:28:05;11.00;;;9.90;;
11735;SDS011;5924;51.398;7.088;2023-04-23T07:30:41;10.70;;;9.60;;
11735;SDS011;5924;51.398;7.088;2023-04-23T07:33:10;10.07;;;9.20;;
11735;SDS011;5924;51.398;7.088;2023-04-23T07:35:38;11.10;;;10.00;;
11735;SDS011;5924;51.398;7.088;2023-04-23T07:38:07;11.73;;;10.07;;
11735;SDS011;5924;51.398;7.088;2023-04-23T07:40:38;9.57;;;8.67;;
11735;SDS011;5924;51.398;7.088;2023-04-23T07:43:15;8.17;;;7.40;;
11735;SDS011;5924;51.398;7.088;2023-04-23T07:45:41;10.20;;;7.70;;
11735;SDS011;5924;51.398;7.088;2023-04-23T07:48:09;7.70;;;7.00;;
11735;SDS011;5924;51.398;7.088;2023-04-23T07:50:37;7.87;;;7.17;;
11735;SDS011;5924;51.398;7.088;2023-04-23T07:53:11;8.63;;;7.47;;
11735;SDS011;5924;51.398;7.088;2023-04-23T07:55:37;6.90;;;6.40;;
11735;SDS011;5924;51.398;7.088;2023-04-23T07:58:08;12.23;;;6.10;;
11735;SDS011;5924;51.398;7.088;2023-04-23T08:00:34;6.37;;;5.93;;
11735;SDS011;5924;51.398;7.088;2023-04-23T08:03:05;7.30;;;6.60;;
11735;SDS011;5924;51.398;7.088;2023-04-23T08:05:30;11.40;;;6.07;;
11735;SDS011;5924;51.398;7.088;2023-04-23T08:07:56;7.57;;;5.83;;
11735;SDS011;5924;51.398;7.088;2023-04-23T08:10:41;5.87;;;5.43;;
11735;SDS011;5924;51.398;7.088;2023-04-23T08:13:10;5.23;;;4.83;;
11735;SDS011;5924;51.398;7.088;2023-04-23T08:15:41;8.90;;;4.73;;
11735;SDS011;5924;51.398;7.088;2023-04-23T08:18:07;5.60;;;4.60;;
11735;SDS011;5924;51.398;7.088;2023-04-23T08:20:39;4.32;;;3.85;;
11735;SDS011;5924;51.398;7.088;2023-04-23T08:23:10;4.97;;;4.50;;
11735;SDS011;5924;51.398;7.088;2023-04-23T08:25:42;4.70;;;3.80;;
11735;SDS011;5924;51.398;7.088;2023-04-23T08:28:11;4.97;;;3.83;;
11735;SDS011;5924;51.398;7.088;2023-04-23T08:30:37;4.10;;;3.90;;
11735;SDS011;5924;51.398;7.088;2023-04-23T08:33:12;4.63;;;4.37;;
11735;SDS011;5924;51.398;7.088;2023-04-23T08:35:38;4.53;;;4.13;;
11735;SDS011;5924;51.398;7.088;2023-04-23T08:38:11;4.37;;;4.07;;
11735;SDS011;5924;51.398;7.088;2023-04-23T08:40:37;4.93;;;4.30;;
11735;SDS011;5924;51.398;7.088;2023-04-23T08:43:09;4.20;;;4.00;;
11735;SDS011;5924;51.398;7.088;2023-04-23T08:45:45;5.00;;;4.53;;
11735;SDS011;5924;51.398;7.088;2023-04-23T08:48:16;8.93;;;4.60;;
11735;SDS011;5924;51.398;7.088;2023-04-23T08:50:53;4.20;;;3.90;;
11735;SDS011;5924;51.398;7.088;2023-04-23T08:53:36;4.03;;;3.73;;
11735;SDS011;5924;51.398;7.088;2023-04-23T08:56:12;4.57;;;4.13;;
11735;SDS011;5924;51.398;7.088;2023-04-23T08:58:56;6.10;;;5.40;;
11735;SDS011;5924;51.398;7.088;2023-04-23T09:01:28;5.30;;;4.90;;
11735;SDS011;5924;51.398;7.088;2023-04-23T09:04:09;6.63;;;5.40;;
11735;SDS011;5924;51.398;7.088;2023-04-23T09:06:44;5.80;;;5.50;;
11735;SDS011;5924;51.398;7.088;2023-04-23T09:09:16;5.20;;;4.80;;
11735;SDS011;5924;51.398;7.088;2023-04-23T09:11:47;5.23;;;4.47;;
11735;SDS011;5924;51.398;7.088;2023-04-23T09:14:31;6.07;;;5.57;;
11735;SDS011;5924;51.398;7.088;2023-04-23T09:17:20;4.85;;;4.45;;
11735;SDS011;5924;51.398;7.088;2023-04-23T09:20:10;4.93;;;4.23;;
11735;SDS011;5924;51.398;7.088;2023-04-23T09:22:49;5.57;;;4.40;;
11735;SDS011;5924;51.398;7.088;2023-04-23T09:25:22;4.87;;;4.27;;
11735;SDS011;5924;51.398;7.088;2023-04-23T09:27:49;4.43;;;3.97;;
11735;SDS011;5924;51.398;7.088;2023-04-23T09:30:42;5.57;;;4.38;;
11735;SDS011;5924;51.398;7.088;2023-04-23T09:33:20;4.60;;;4.40;;
11735;SDS011;5924;51.398;7.088;2023-04-23T09:35:52;4.77;;;4.33;;
11735;SDS011;5924;51.398;7.088;2023-04-23T09:38:29;6.30;;;4.40;;
11735;SDS011;5924;51.398;7.088;2023-04-23T09:41:00;6.90;;;4.53;;
11735;SDS011;5924;51.398;7.088;2023-04-23T09:44:01;4.00;;;3.60;;
11735;SDS011;5924;51.398;7.088;2023-04-23T09:46:40;4.53;;;4.23;;
11735;SDS011;5924;51.398;7.088;2023-04-23T09:49:17;3.70;;;3.60;;
11735;SDS011;5924;51.398;7.088;2023-04-23T09:52:06;3.13;;;3.00;;
11735;SDS011;5924;51.398;7.088;2023-04-23T09:54:50;3.20;;;3.10;;
11735;SDS011;5924;51.398;7.088;2023-04-23T09:57:19;3.00;;;2.90;;
11735;SDS011;5924;51.398;7.088;2023-04-23T09:59:50;2.93;;;2.90;;
11735;SDS011;5924;51.398;7.088;2023-04-23T10:02:25;4.27;;;4.07;;
11735;SDS011;5924;51.398;7.088;2023-04-23T10:05:21;3.60;;;3.40;;
11735;SDS011;5924;51.398;7.088;2023-04-23T10:07:50;2.53;;;2.50;;
11735;SDS011;5924;51.398;7.088;2023-04-23T10:10:21;6.67;;;3.00;;
11735;SDS011;5924;51.398;7.088;2023-04-23T10:12:54;3.40;;;3.20;;
11735;SDS011;5924;51.398;7.088;2023-04-23T10:15:24;3.50;;;3.20;;
11735;SDS011;5924;51.398;7.088;2023-04-23T10:17:56;3.53;;;3.30;;
11735;SDS011;5924;51.398;7.088;2023-04-23T10:20:34;4.97;;;3.80;;
11735;SDS011;5924;51.398;7.088;2023-04-23T10:23:04;4.30;;;2.70;;
11735;SDS011;5924;51.398;7.088;2023-04-23T10:25:58;3.40;;;3.20;;
11735;SDS011;5924;51.398;7.088;2023-04-23T10:28:36;3.00;;;2.87;;
11735;SDS011;5924;51.398;7.088;2023-04-23T10:31:11;3.90;;;3.00;;
11735;SDS011;5924;51.398;7.088;2023-04-23T10:33:40;4.00;;;3.07;;
11735;SDS011;5924;51.398;7.088;2023-04-23T10:36:12;8.57;;;2.60;;
11735;SDS011;5924;51.398;7.088;2023-04-23T10:38:42;4.03;;;3.50;;
11735;SDS011;5924;51.398;7.088;2023-04-23T10:41:12;3.08;;;2.80;;
11735;SDS011;5924;51.398;7.088;2023-04-23T10:44:02;3.40;;;2.80;;
11735;SDS011;5924;51.398;7.088;2023-04-23T10:46:36;3.67;;;2.87;;
11735;SDS011;5924;51.398;7.088;2023-04-23T10:49:14;2.90;;;2.80;;
11735;SDS011;5924;51.398;7.088;2023-04-23T10:55:02;2.90;;;2.43;;
11735;SDS011;5924;51.398;7.088;2023-04-23T10:57:28;3.13;;;2.83;;
11735;SDS011;5924;51.398;7.088;2023-04-23T10:59:54;2.30;;;2.23;;
11735;SDS011;5924;51.398;7.088;2023-04-23T11:02:23;3.33;;;2.70;;
11735;SDS011;5924;51.398;7.088;2023-04-23T11:04:54;2.57;;;2.20;;
11735;SDS011;5924;51.398;7.088;2023-04-23T11:07:25;2.17;;;2.00;;
11735;SDS011;5924;51.398;7.088;2023-04-23T11:09:56;3.87;;;2.37;;
11735;SDS011;5924;51.398;7.088;2023-04-23T11:14:54;2.70;;;1.80;;
11735;SDS011;5924;51.398;7.088;2023-04-23T11:17:24;2.73;;;2.27;;
11735;SDS011;5924;51.398;7.088;2023-04-23T11:20:12;2.93;;;2.73;;
11735;SDS011;5924;51.398;7.088;2023-04-23T11:22:43;2.83;;;2.20;;
11735;SDS011;5924;51.398;7.088;2023-04-23T11:25:11;7.63;;;2.80;;
11735;SDS011;5924;51.398;7.088;2023-04-23T11:27:39;4.03;;;3.70;;
11735;SDS011;5924;51.398;7.088;2023-04-23T11:30:13;2.77;;;2.53;;
11735;SDS011;5924;51.398;7.088;2023-04-23T11:32:45;3.23;;;2.63;;
11735;SDS011;5924;51.398;7.088;2023-04-23T11:35:13;2.60;;;2.20;;
11735;SDS011;5924;51.398;7.088;2023-04-23T11:37:40;2.33;;;2.10;;
11735;SDS011;5924;51.398;7.088;2023-04-23T11:40:07;3.23;;;1.83;;
11735;SDS011;5924;51.398;7.088;2023-04-23T11:42:41;2.13;;;2.03;;
11735;SDS011;5924;51.398;7.088;2023-04-23T11:45:17;1.77;;;1.77;;
11735;SDS011;5924;51.398;7.088;2023-04-23T11:47:44;2.90;;;2.00;;
11735;SDS011;5924;51.398;7.088;2023-04-23T11:50:44;3.23;;;2.30;;
11735;SDS011;5924;51.398;7.088;2023-04-23T11:53:06;1.87;;;1.77;;
11735;SDS011;5924;51.398;7.088;2023-04-23T11:55:34;2.10;;;1.83;;
11735;SDS011;5924;51.398;7.088;2023-04-23T11:58:00;3.80;;;2.00;;
11735;SDS011;5924;51.398;7.088;2023-04-23T12:00:27;2.00;;;1.90;;
11735;SDS011;5924;51.398;7.088;2023-04-23T12:05:29;1.92;;;1.77;;
11735;SDS011;5924;51.398;7.088;2023-04-23T12:08:16;2.10;;;1.77;;
11735;SDS011;5924;51.398;7.088;2023-04-23T12:10:50;6.60;;;2.70;;
11735;SDS011;5924;51.398;7.088;2023-04-23T12:13:17;3.07;;;1.90;;
11735;SDS011;5924;51.398;7.088;2023-04-23T12:15:58;2.20;;;1.50;;
11735;SDS011;5924;51.398;7.088;2023-04-23T12:18:32;3.37;;;1.40;;
11735;SDS011;5924;51.398;7.088;2023-04-23T12:21:03;2.33;;;2.13;;
11735;SDS011;5924;51.398;7.088;2023-04-23T12:23:33;1.43;;;1.27;;
11735;SDS011;5924;51.398;7.088;2023-04-23T12:26:00;2.30;;;2.10;;
11735;SDS011;5924;51.398;7.088;2023-04-23T12:28:27;1.52;;;1.42;;
11735;SDS011;5924;51.398;7.088;2023-04-23T12:30:57;2.35;;;1.65;;
11735;SDS011;5924;51.398;7.088;2023-04-23T12:33:28;8.07;;;1.60;;
11735;SDS011;5924;51.398;7.088;2023-04-23T12:35:54;1.80;;;1.20;;
11735;SDS011;5924;51.398;7.088;2023-04-23T12:40:51;2.30;;;1.40;;
11735;SDS011;5924;51.398;7.088;2023-04-23T12:43:17;1.93;;;1.17;;
11735;SDS011;5924;51.398;7.088;2023-04-23T12:45:43;4.47;;;2.72;;
11735;SDS011;5924;51.398;7.088;2023-04-23T12:48:09;1.30;;;1.30;;
11735;SDS011;5924;51.398;7.088;2023-04-23T12:50:35;3.63;;;2.90;;
11735;SDS011;5924;51.398;7.088;2023-04-23T12:53:02;1.40;;;1.33;;
11735;SDS011;5924;51.398;7.088;2023-04-23T12:55:27;2.00;;;1.30;;
11735;SDS011;5924;51.398;7.088;2023-04-23T12:57:53;1.00;;;1.00;;
11735;SDS011;5924;51.398;7.088;2023-04-23T13:00:19;3.87;;;1.20;;
11735;SDS011;5924;51.398;7.088;2023-04-23T13:02:45;1.58;;;1.10;;
11735;SDS011;5924;51.398;7.088;2023-04-23T13:05:10;3.65;;;1.25;;
11735;SDS011;5924;51.398;7.088;2023-04-23T13:07:36;0.93;;;0.93;;
11735;SDS011;5924;51.398;7.088;2023-04-23T13:10:02;1.90;;;1.70;;
11735;SDS011;5924;51.398;7.088;2023-04-23T13:12:28;0.80;;;0.80;;
11735;SDS011;5924;51.398;7.088;2023-04-23T13:14:53;1.13;;;0.90;;
11735;SDS011;5924;51.398;7.088;2023-04-23T13:17:19;3.67;;;1.10;;
11735;SDS011;5924;51.398;7.088;2023-04-23T13:19:45;1.20;;;1.10;;
11735;SDS011;5924;51.398;7.088;2023-04-23T13:22:10;1.10;;;1.00;;
11735;SDS011;5924;51.398;7.088;2023-04-23T13:24:36;2.50;;;0.90;;
11735;SDS011;5924;51.398;7.088;2023-04-23T13:27:01;2.73;;;1.33;;
11735;SDS011;5924;51.398;7.088;2023-04-23T13:29:27;1.33;;;1.23;;
11735;SDS011;5924;51.398;7.088;2023-04-23T13:31:53;2.20;;;1.27;;
11735;SDS011;5924;51.398;7.088;2023-04-23T13:34:20;1.23;;;1.23;;
11735;SDS011;5924;51.398;7.088;2023-04-23T13:36:46;0.80;;;0.80;;
11735;SDS011;5924;51.398;7.088;2023-04-23T13:39:11;1.37;;;1.20;;
11735;SDS011;5924;51.398;7.088;2023-04-23T13:41:38;2.97;;;1.10;;
11735;SDS011;5924;51.398;7.088;2023-04-23T13:44:04;1.90;;;1.10;;
11735;SDS011;5924;51.398;7.088;2023-04-23T13:46:30;1.10;;;1.00;;
11735;SDS011;5924;51.398;7.088;2023-04-23T13:48:56;0.90;;;0.90;;
11735;SDS011;5924;51.398;7.088;2023-04-23T13:51:22;5.30;;;1.57;;
11735;SDS011;5924;51.398;7.088;2023-04-23T13:53:47;2.27;;;2.17;;
11735;SDS011;5924;51.398;7.088;2023-04-23T13:56:13;5.23;;;1.57;;
11735;SDS011;5924;51.398;7.088;2023-04-23T13:58:39;3.07;;;0.80;;
11735;SDS011;5924;51.398;7.088;2023-04-23T14:01:07;3.17;;;0.90;;
11735;SDS011;5924;51.398;7.088;2023-04-23T14:03:35;3.07;;;1.33;;
11735;SDS011;5924;51.398;7.088;2023-04-23T14:06:01;1.57;;;1.13;;
11735;SDS011;5924;51.398;7.088;2023-04-23T14:08:27;2.00;;;1.40;;
11735;SDS011;5924;51.398;7.088;2023-04-23T14:10:52;1.77;;;1.00;;
11735;SDS011;5924;51.398;7.088;2023-04-23T14:13:18;2.10;;;1.03;;
11735;SDS011;5924;51.398;7.088;2023-04-23T14:15:44;1.13;;;1.02;;
11735;SDS011;5924;51.398;7.088;2023-04-23T14:18:09;2.13;;;0.87;;
11735;SDS011;5924;51.398;7.088;2023-04-23T14:20:35;1.23;;;1.20;;
11735;SDS011;5924;51.398;7.088;2023-04-23T14:25:51;1.80;;;0.93;;
11735;SDS011;5924;51.398;7.088;2023-04-23T14:28:38;2.37;;;0.93;;
11735;SDS011;5924;51.398;7.088;2023-04-23T14:31:08;1.13;;;1.03;;
11735;SDS011;5924;51.398;7.088;2023-04-23T14:33:34;7.90;;;1.37;;
11735;SDS011;5924;51.398;7.088;2023-04-23T14:36:00;1.00;;;1.00;;
11735;SDS011;5924;51.398;7.088;2023-04-23T14:38:25;1.47;;;1.37;;
11735;SDS011;5924;51.398;7.088;2023-04-23T14:40:51;1.27;;;1.20;;
11735;SDS011;5924;51.398;7.088;2023-04-23T14:43:17;1.90;;;0.97;;
11735;SDS011;5924;51.398;7.088;2023-04-23T14:45:43;0.97;;;0.97;;
11735;SDS011;5924;51.398;7.088;2023-04-23T14:48:08;2.80;;;1.23;;
11735;SDS011;5924;51.398;7.088;2023-04-23T14:50:34;1.13;;;1.10;;
11735;SDS011;5924;51.398;7.088;2023-04-23T14:53:00;9.83;;;1.17;;
11735;SDS011;5924;51.398;7.088;2023-04-23T14:55:28;3.28;;;1.17;;
11735;SDS011;5924;51.398;7.088;2023-04-23T14:57:54;2.70;;;0.93;;
11735;SDS011;5924;51.398;7.088;2023-04-23T15:00:20;7.60;;;0.93;;
11735;SDS011;5924;51.398;7.088;2023-04-23T15:02:46;3.13;;;1.10;;
11735;SDS011;5924;51.398;7.088;2023-04-23T15:05:12;1.30;;;1.30;;
11735;SDS011;5924;51.398;7.088;2023-04-23T15:07:39;0.83;;;0.83;;
11735;SDS011;5924;51.398;7.088;2023-04-23T15:10:06;3.37;;;1.33;;
11735;SDS011;5924;51.398;7.088;2023-04-23T15:15:42;0.83;;;0.70;;
11735;SDS011;5924;51.398;7.088;2023-04-23T15:18:19;0.90;;;0.90;;
11735;SDS011;5924;51.398;7.088;2023-04-23T15:20:44;1.07;;;1.07;;
11735;SDS011;5924;51.398;7.088;2023-04-23T15:23:10;2.60;;;1.07;;
11735;SDS011;5924;51.398;7.088;2023-04-23T15:25:36;6.27;;;1.13;;
11735;SDS011;5924;51.398;7.088;2023-04-23T15:28:03;1.13;;;1.00;;
11735;SDS011;5924;51.398;7.088;2023-04-23T15:30:29;1.43;;;1.30;;
11735;SDS011;5924;51.398;7.088;2023-04-23T15:32:55;2.20;;;2.00;;
11735;SDS011;5924;51.398;7.088;2023-04-23T15:35:25;2.47;;;2.10;;
11735;SDS011;5924;51.398;7.088;2023-04-23T15:37:52;1.97;;;1.60;;
11735;SDS011;5924;51.398;7.088;2023-04-23T15:40:18;2.03;;;1.60;;
11735;SDS011;5924;51.398;7.088;2023-04-23T15:42:43;1.07;;;1.07;;
11735;SDS011;5924;51.398;7.088;2023-04-23T15:45:10;1.20;;;1.20;;
11735;SDS011;5924;51.398;7.088;2023-04-23T15:47:36;1.40;;;1.40;;
11735;SDS011;5924;51.398;7.088;2023-04-23T15:50:05;2.00;;;1.35;;
11735;SDS011;5924;51.398;7.088;2023-04-23T15:52:32;1.50;;;1.50;;
11735;SDS011;5924;51.398;7.088;2023-04-23T15:54:58;1.40;;;1.30;;
11735;SDS011;5924;51.398;7.088;2023-04-23T15:57:24;1.90;;;1.80;;
11735;SDS011;5924;51.398;7.088;2023-04-23T15:59:50;2.17;;;2.17;;
11735;SDS011;5924;51.398;7.088;2023-04-23T16:02:16;3.47;;;1.80;;
11735;SDS011;5924;51.398;7.088;2023-04-23T16:04:42;2.53;;;2.43;;
11735;SDS011;5924;51.398;7.088;2023-04-23T16:07:09;2.93;;;2.83;;
11735;SDS011;5924;51.398;7.088;2023-04-23T16:09:35;2.40;;;2.30;;
11735;SDS011;5924;51.398;7.088;2023-04-23T16:12:01;2.57;;;2.47;;
11735;SDS011;5924;51.398;7.088;2023-04-23T16:14:27;3.07;;;2.87;;
11735;SDS011;5924;51.398;7.088;2023-04-23T16:16:52;3.60;;;3.23;;
11735;SDS011;5924;51.398;7.088;2023-04-23T16:19:18;6.23;;;3.97;;
11735;SDS011;5924;51.398;7.088;2023-04-23T16:21:43;3.27;;;3.07;;
11735;SDS011;5924;51.398;7.088;2023-04-23T16:24:09;5.83;;;3.60;;
11735;SDS011;5924;51.398;7.088;2023-04-23T16:26:35;4.63;;;3.23;;
11735;SDS011;5924;51.398;7.088;2023-04-23T16:29:02;2.87;;;2.53;;
11735;SDS011;5924;51.398;7.088;2023-04-23T16:31:28;2.13;;;2.03;;
11735;SDS011;5924;51.398;7.088;2023-04-23T16:33:54;2.43;;;2.30;;
11735;SDS011;5924;51.398;7.088;2023-04-23T16:36:20;2.33;;;2.20;;
11735;SDS011;5924;51.398;7.088;2023-04-23T16:38:46;2.80;;;2.60;;
11735;SDS011;5924;51.398;7.088;2023-04-23T16:41:13;2.50;;;2.30;;
11735;SDS011;5924;51.398;7.088;2023-04-23T16:43:43;3.97;;;3.40;;
11735;SDS011;5924;51.398;7.088;2023-04-23T16:46:11;2.67;;;2.40;;
11735;SDS011;5924;51.398;7.088;2023-04-23T16:48:39;2.72;;;2.10;;
11735;SDS011;5924;51.398;7.088;2023-04-23T16:51:06;2.50;;;2.50;;
11735;SDS011;5924;51.398;7.088;2023-04-23T16:53:31;2.90;;;2.70;;
11735;SDS011;5924;51.398;7.088;2023-04-23T16:55:57;3.23;;;3.10;;
11735;SDS011;5924;51.398;7.088;2023-04-23T16:58:22;4.00;;;3.70;;
11735;SDS011;5924;51.398;7.088;2023-04-23T17:00:48;3.57;;;3.37;;
11735;SDS011;5924;51.398;7.088;2023-04-23T17:03:14;4.10;;;3.90;;
11735;SDS011;5924;51.398;7.088;2023-04-23T17:05:40;8.20;;;5.30;;
11735;SDS011;5924;51.398;7.088;2023-04-23T17:08:06;4.73;;;4.30;;
11735;SDS011;5924;51.398;7.088;2023-04-23T17:10:32;4.83;;;4.30;;
11735;SDS011;5924;51.398;7.088;2023-04-23T17:12:58;4.00;;;3.70;;
11735;SDS011;5924;51.398;7.088;2023-04-23T17:15:23;4.40;;;4.00;;
11735;SDS011;5924;51.398;7.088;2023-04-23T17:17:49;4.37;;;3.57;;
11735;SDS011;5924;51.398;7.088;2023-04-23T17:20:16;4.07;;;3.87;;
11735;SDS011;5924;51.398;7.088;2023-04-23T17:22:42;3.83;;;3.63;;
11735;SDS011;5924;51.398;7.088;2023-04-23T17:25:08;4.13;;;3.70;;
11735;SDS011;5924;51.398;7.088;2023-04-23T17:27:34;9.47;;;5.10;;
11735;SDS011;5924;51.398;7.088;2023-04-23T17:29:59;11.60;;;7.47;;
11735;SDS011;5924;51.398;7.088;2023-04-23T17:32:25;10.40;;;6.07;;
11735;SDS011;5924;51.398;7.088;2023-04-23T17:34:52;8.80;;;5.90;;
11735;SDS011;5924;51.398;7.088;2023-04-23T17:37:17;9.83;;;5.40;;
11735;SDS011;5924;51.398;7.088;2023-04-23T17:39:43;5.60;;;5.07;;
11735;SDS011;5924;51.398;7.088;2023-04-23T17:42:09;5.23;;;4.67;;
11735;SDS011;5924;51.398;7.088;2023-04-23T17:44:37;5.07;;;4.77;;
11735;SDS011;5924;51.398;7.088;2023-04-23T17:47:03;4.70;;;4.57;;
11735;SDS011;5924;51.398;7.088;2023-04-23T17:49:28;4.30;;;4.10;;
11735;SDS011;5924;51.398;7.088;2023-04-23T17:51:54;3.97;;;3.77;;
11735;SDS011;5924;51.398;7.088;2023-04-23T17:54:20;4.50;;;4.30;;
11735;SDS011;5924;51.398;7.088;2023-04-23T17:56:46;5.53;;;3.80;;
11735;SDS011;5924;51.398;7.088;2023-04-23T17:59:11;4.03;;;3.73;;
11735;SDS011;5924;51.398;7.088;2023-04-23T18:01:37;4.43;;;4.13;;
11735;SDS011;5924;51.398;7.088;2023-04-23T18:04:03;3.83;;;3.73;;
11735;SDS011;5924;51.398;7.088;2023-04-23T18:06:28;5.13;;;4.10;;
11735;SDS011;5924;51.398;7.088;2023-04-23T18:08:54;3.90;;;3.70;;
11735;SDS011;5924;51.398;7.088;2023-04-23T18:11:20;4.10;;;3.67;;
11735;SDS011;5924;51.398;7.088;2023-04-23T18:13:45;3.10;;;3.00;;
11735;SDS011;5924;51.398;7.088;2023-04-23T18:16:14;3.13;;;2.93;;
11735;SDS011;5924;51.398;7.088;2023-04-23T18:18:39;4.37;;;3.17;;
11735;SDS011;5924;51.398;7.088;2023-04-23T18:21:05;3.50;;;3.30;;
11735;SDS011;5924;51.398;7.088;2023-04-23T18:23:31;2.60;;;2.50;;
11735;SDS011;5924;51.398;7.088;2023-04-23T18:25:59;2.23;;;2.23;;
11735;SDS011;5924;51.398;7.088;2023-04-23T18:28:26;2.73;;;2.37;;
11735;SDS011;5924;51.398;7.088;2023-04-23T18:30:52;2.97;;;2.67;;
11735;SDS011;5924;51.398;7.088;2023-04-23T18:33:24;2.07;;;1.97;;
11735;SDS011;5924;51.398;7.088;2023-04-23T18:35:55;1.80;;;1.80;;
11735;SDS011;5924;51.398;7.088;2023-04-23T18:38:37;1.60;;;1.60;;
11735;SDS011;5924;51.398;7.088;2023-04-23T18:41:08;1.95;;;1.95;;
11735;SDS011;5924;51.398;7.088;2023-04-23T18:43:34;2.00;;;1.90;;
11735;SDS011;5924;51.398;7.088;2023-04-23T18:46:00;1.57;;;1.57;;
11735;SDS011;5924;51.398;7.088;2023-04-23T18:51:02;1.57;;;1.57;;
11735;SDS011;5924;51.398;7.088;2023-04-23T18:53:29;1.73;;;1.73;;
11735;SDS011;5924;51.398;7.088;2023-04-23T18:55:55;1.80;;;1.70;;
11735;SDS011;5924;51.398;7.088;2023-04-23T18:58:21;1.30;;;1.30;;
11735;SDS011;5924;51.398;7.088;2023-04-23T19:00:47;1.83;;;1.70;;
11735;SDS011;5924;51.398;7.088;2023-04-23T19:03:12;1.67;;;1.67;;
11735;SDS011;5924;51.398;7.088;2023-04-23T19:05:38;1.40;;;1.40;;
11735;SDS011;5924;51.398;7.088;2023-04-23T19:08:05;7.00;;;6.50;;
11735;SDS011;5924;51.398;7.088;2023-04-23T19:10:30;14.13;;;12.70;;
11735;SDS011;5924;51.398;7.088;2023-04-23T19:12:56;7.73;;;7.37;;
11735;SDS011;5924;51.398;7.088;2023-04-23T19:15:22;11.50;;;10.30;;
11735;SDS011;5924;51.398;7.088;2023-04-23T19:17:48;35.90;;;29.50;;
11735;SDS011;5924;51.398;7.088;2023-04-23T19:20:14;9.87;;;9.07;;
11735;SDS011;5924;51.398;7.088;2023-04-23T19:22:40;3.20;;;3.10;;
11735;SDS011;5924;51.398;7.088;2023-04-23T19:25:06;2.10;;;2.00;;
11735;SDS011;5924;51.398;7.088;2023-04-23T19:27:33;1.57;;;1.57;;
11735;SDS011;5924;51.398;7.088;2023-04-23T19:30:00;1.53;;;1.53;;
11735;SDS011;5924;51.398;7.088;2023-04-23T19:32:29;1.80;;;1.67;;
11735;SDS011;5924;51.398;7.088;2023-04-23T19:34:57;4.13;;;2.40;;
11735;SDS011;5924;51.398;7.088;2023-04-23T19:37:23;1.60;;;1.60;;
11735;SDS011;5924;51.398;7.088;2023-04-23T19:39:49;1.60;;;1.60;;
11735;SDS011;5924;51.398;7.088;2023-04-23T19:42:16;2.53;;;2.33;;
11735;SDS011;5924;51.398;7.088;2023-04-23T19:44:42;2.28;;;2.17;;
11735;SDS011;5924;51.398;7.088;2023-04-23T19:47:08;7.63;;;2.37;;
11735;SDS011;5924;51.398;7.088;2023-04-23T19:49:34;8.00;;;2.83;;
11735;SDS011;5924;51.398;7.088;2023-04-23T19:52:00;6.60;;;3.20;;
11735;SDS011;5924;51.398;7.088;2023-04-23T19:54:27;2.65;;;2.47;;
11735;SDS011;5924;51.398;7.088;2023-04-23T19:56:53;12.77;;;3.27;;
11735;SDS011;5924;51.398;7.088;2023-04-23T19:59:19;5.63;;;2.63;;
11735;SDS011;5924;51.398;7.088;2023-04-23T20:01:45;2.70;;;2.50;;
11735;SDS011;5924;51.398;7.088;2023-04-23T20:04:11;10.13;;;3.93;;
11735;SDS011;5924;51.398;7.088;2023-04-23T20:06:37;8.10;;;3.92;;
11735;SDS011;5924;51.398;7.088;2023-04-23T20:09:03;3.07;;;2.87;;
11735;SDS011;5924;51.398;7.088;2023-04-23T20:11:32;4.83;;;3.40;;
11735;SDS011;5924;51.398;7.088;2023-04-23T20:13:59;3.23;;;2.73;;
11735;SDS011;5924;51.398;7.088;2023-04-23T20:16:25;5.43;;;2.07;;
11735;SDS011;5924;51.398;7.088;2023-04-23T20:18:54;3.60;;;3.30;;